Five Points, Alabama
Current Conditions -  °F | °C
As of 9:35 AM on Saturday 25 Oct 2014 (Local Time) from KLGC Reporting Station
Clear Clear  
Wind Chill: 64°   Ceiling: Unl
Heat Index: 64°   Visibility: 10mi
Dew Point: 49°   Wind: 5mph
Humidity: 60%   Direction: 20°NNE
Pressure: 30.09"   Gusts: NA
Location:  33.02°N, 85.35°W
Report Text: KLGC 251435Z AUTO 02004KT 10SM CLR 18/10 A3009 RMK AO2 T01760097
Loading
Personal Weather Stations






























Interactive Weather Map
Tropical Storm Tracking
New forecast layout! Learn more

10-Day Weather Forecast

Advertisements
Track Severe Weather on mobile